Time;durP1;ratioP1;P1;durP2;ratioP2;P2;SDS_P1;SDS_P2;PMS_P1;PMS_P2;Temp;Humidity;BMP_temperature;BMP_pressure;BME280_temperature;BME280_humidity;BME280_pressure;Samples;Min_cycle;Max_cycle;Signal;HPM_P1;HPM_P2
2023/03/07 00:01:25;;;;;;;10.47;8.63;;;;;;;4.19;80.38;95604.75;5069514;28;20206;-55
2023/03/07 00:03:51;;;;;;;10.07;8.70;;;;;;;4.07;80.97;95604.97;5070459;28;20366;-55
2023/03/07 00:06:18;;;;;;;10.17;8.90;;;;;;;4.02;80.46;95607.97;5069530;28;20650;-55
2023/03/07 00:08:49;;;;;;;12.27;9.13;;;;;;;4.00;80.52;95607.28;5071127;28;20211;-56
2023/03/07 00:11:16;;;;;;;10.50;8.87;;;;;;;3.97;80.35;95610.13;5070892;28;20202;-55
2023/03/07 00:13:42;;;;;;;10.00;8.70;;;;;;;3.83;80.43;95608.66;5071323;28;20213;-55
2023/03/07 00:16:11;;;;;;;11.57;9.03;;;;;;;3.72;80.55;95611.34;5071561;28;20214;-55
2023/03/07 00:18:39;;;;;;;10.63;8.87;;;;;;;3.73;80.34;95606.94;5073359;28;20293;-55
2023/03/07 00:21:09;;;;;;;12.40;9.27;;;;;;;3.66;80.26;95606.63;5074479;28;20206;-55
2023/03/07 00:23:37;;;;;;;10.43;8.97;;;;;;;3.59;79.95;95608.06;5073950;28;20320;-55
2023/03/07 00:26:05;;;;;;;10.93;8.73;;;;;;;3.55;80.16;95609.28;5074289;28;20202;-54
2023/03/07 00:28:31;;;;;;;10.73;8.63;;;;;;;3.41;81.72;95617.41;5074084;28;20198;-55
2023/03/07 00:31:00;;;;;;;11.50;9.03;;;;;;;3.37;82.10;95616.00;5073639;28;20643;-55
2023/03/07 00:33:26;;;;;;;10.93;9.13;;;;;;;3.33;82.25;95607.59;5074316;28;20234;-55
2023/03/07 00:35:59;;;;;;;11.93;8.63;;;;;;;3.27;84.02;95613.31;5073159;28;20697;-55
2023/03/07 00:38:25;;;;;;;9.97;8.83;;;;;;;3.27;83.56;95615.09;5073020;28;20205;-54
2023/03/07 00:40:59;;;;;;;14.83;9.27;;;;;;;3.26;83.69;95618.69;5074557;28;20217;-56
2023/03/07 00:43:26;;;;;;;10.90;9.07;;;;;;;3.34;83.29;95618.88;5074460;28;20544;-55
2023/03/07 00:45:53;;;;;;;11.00;8.73;;;;;;;3.30;84.85;95607.84;5073957;28;20206;-55
2023/03/07 00:48:19;;;;;;;11.67;9.43;;;;;;;3.30;84.77;95609.63;5073524;28;20248;-56
2023/03/07 00:50:46;;;;;;;12.13;8.67;;;;;;;3.36;84.69;95603.91;5073218;28;20202;-56
2023/03/07 00:53:18;;;;;;;10.83;9.40;;;;;;;3.33;84.87;95588.50;5073348;28;20648;-55
2023/03/07 00:55:54;;;;;;;13.93;9.67;;;;;;;3.29;86.08;95597.53;5073640;28;20216;-55
2023/03/07 00:58:20;;;;;;;11.50;9.47;;;;;;;3.30;85.73;95588.72;5080586;28;20209;-56
2023/03/07 01:00:47;;;;;;;11.50;9.67;;;;;;;3.30;86.03;95594.78;5078842;28;20194;-55
2023/03/07 01:03:13;;;;;;;12.73;8.90;;;;;;;3.27;85.75;95594.19;5078118;28;20298;-56
2023/03/07 01:05:41;;;;;;;13.40;9.83;;;;;;;3.27;86.14;95589.81;5079300;28;20202;-55
2023/03/07 01:08:08;;;;;;;10.60;8.87;;;;;;;3.22;85.70;95591.13;5078421;28;20543;-54
2023/03/07 01:10:37;;;;;;;10.77;8.87;;;;;;;3.20;84.70;95590.41;5073181;28;20264;-55
2023/03/07 01:13:04;;;;;;;11.60;9.90;;;;;;;3.16;84.40;95595.06;5073459;28;20214;-55
2023/03/07 01:15:31;;;;;;;11.70;8.47;;;;;;;3.17;84.65;95599.34;5072395;28;20663;-55
2023/03/07 01:17:58;;;;;;;11.00;8.87;;;;;;;3.17;84.47;95593.28;5073135;28;20205;-55
2023/03/07 01:20:25;;;;;;;12.30;9.33;;;;;;;3.15;84.74;95596.03;5073086;28;20214;-55
2023/03/07 01:22:51;;;;;;;12.30;9.23;;;;;;;3.18;84.95;95594.94;5073036;28;20205;-54
2023/03/07 01:25:19;;;;;;;12.73;9.17;;;;;;;3.22;84.91;95601.59;5072866;28;20203;-55
2023/03/07 01:27:47;;;;;;;12.23;9.93;;;;;;;3.21;84.99;95605.97;5072813;28;20631;-56
2023/03/07 01:30:14;;;;;;;11.70;9.47;;;;;;;3.23;84.92;95608.44;5072586;28;20639;-56
2023/03/07 01:32:41;;;;;;;12.13;9.53;;;;;;;3.24;85.29;95602.28;5072766;28;20206;-56
2023/03/07 01:35:09;;;;;;;11.67;9.03;;;;;;;3.26;85.20;95597.78;5072513;28;20226;-56
2023/03/07 01:37:35;;;;;;;12.30;9.87;;;;;;;3.28;84.72;95594.06;5072889;28;20207;-55
2023/03/07 01:40:03;;;;;;;10.63;8.53;;;;;;;3.35;84.60;95599.63;5072240;28;20221;-55
2023/03/07 01:42:31;;;;;;;11.83;9.00;;;;;;;3.34;84.29;95595.34;5072331;28;20293;-56
2023/03/07 01:45:03;;;;;;;12.73;9.60;;;;;;;3.41;84.12;95591.28;5072645;28;20195;-55
2023/03/07 01:47:30;;;;;;;12.80;9.53;;;;;;;3.42;84.63;95592.94;5072577;28;20233;-55
2023/03/07 01:49:56;;;;;;;12.90;9.60;;;;;;;3.47;83.99;95593.41;5071918;28;20233;-54
2023/03/07 01:52:25;;;;;;;11.13;9.83;;;;;;;3.49;82.91;95601.94;5071824;28;20252;-55
2023/03/07 01:54:54;;;;;;;12.20;10.13;;;;;;;3.54;81.91;95591.97;5072516;28;20242;-55
2023/03/07 01:57:22;;;;;;;11.53;9.23;;;;;;;3.56;81.46;95586.59;5072648;28;20202;-55
2023/03/07 01:59:52;;;;;;;11.70;9.70;;;;;;;3.55;82.83;95583.13;5072183;28;20280;-55
2023/03/07 02:02:21;;;;;;;13.17;9.70;;;;;;;3.54;83.07;95575.44;5071948;28;20225;-56
2023/03/07 02:04:51;;;;;;;13.40;10.27;;;;;;;3.55;83.17;95575.31;5072631;28;20214;-55
2023/03/07 02:07:21;;;;;;;12.87;10.17;;;;;;;3.60;82.78;95575.75;5071609;28;20214;-55
2023/03/07 02:09:49;;;;;;;11.03;9.83;;;;;;;3.61;82.85;95566.97;5072246;28;20221;-55
2023/03/07 02:12:16;;;;;;;11.70;10.03;;;;;;;3.58;84.47;95569.81;5071457;28;20206;-56
2023/03/07 02:14:44;;;;;;;12.03;10.70;;;;;;;3.62;82.48;95565.16;5071890;28;20234;-55
2023/03/07 02:17:10;;;;;;;11.43;9.63;;;;;;;3.65;82.65;95562.31;5071670;28;20223;-55
2023/03/07 02:19:50;;;;;;;13.20;9.83;;;;;;;3.65;82.85;95552.66;5071228;28;20207;-55
2023/03/07 02:22:17;;;;;;;11.67;9.97;;;;;;;3.72;82.44;95561.66;5071686;28;20198;-56
2023/03/07 02:24:50;;;;;;;11.83;9.83;;;;;;;3.78;81.17;95562.94;5071567;28;20635;-55
2023/03/07 02:27:18;;;;;;;12.77;10.17;;;;;;;3.66;82.30;95564.78;5070569;28;20218;-55
2023/03/07 02:29:44;;;;;;;11.17;10.03;;;;;;;3.67;82.95;95571.69;5071792;28;20206;-55
2023/03/07 02:32:11;;;;;;;12.73;10.30;;;;;;;3.64;83.03;95565.88;5071072;28;20211;-55
2023/03/07 02:34:37;;;;;;;11.40;9.70;;;;;;;3.65;83.79;95565.75;5070944;28;20674;-55
2023/03/07 02:37:06;;;;;;;11.87;10.50;;;;;;;3.65;83.20;95573.59;5070977;28;20231;-56
2023/03/07 02:39:33;;;;;;;13.17;9.63;;;;;;;3.71;82.05;95573.09;5072654;28;20198;-56
2023/03/07 02:42:03;;;;;;;12.57;10.07;;;;;;;3.67;80.82;95571.69;5073091;28;20209;-56
2023/03/07 02:44:31;;;;;;;13.00;10.17;;;;;;;3.71;81.76;95573.09;5073491;28;20206;-56
2023/03/07 02:46:57;;;;;;;12.17;10.13;;;;;;;3.66;83.27;95569.19;5072204;28;20213;-55
2023/03/07 02:49:24;;;;;;;12.20;9.73;;;;;;;3.72;82.37;95561.66;5072618;28;20257;-56
2023/03/07 02:51:50;;;;;;;13.03;10.50;;;;;;;3.72;80.95;95558.25;5071646;28;20219;-56
2023/03/07 02:54:16;;;;;;;12.90;10.23;;;;;;;3.78;79.94;95548.09;5071185;28;20202;-56
2023/03/07 02:56:43;;;;;;;13.77;10.40;;;;;;;3.79;80.23;95554.97;5072459;28;20234;-56
2023/03/07 02:59:10;;;;;;;11.77;10.10;;;;;;;3.80;79.45;95551.41;5071044;28;20635;-55
2023/03/07 03:01:37;;;;;;;13.27;10.57;;;;;;;3.80;79.28;95550.56;5071050;28;20210;-55
2023/03/07 03:04:04;;;;;;;12.77;10.07;;;;;;;3.78;80.45;95547.25;5070898;28;20956;-56
2023/03/07 03:06:30;;;;;;;11.60;9.83;;;;;;;3.81;79.40;95547.84;5070372;28;20508;-56
2023/03/07 03:08:57;;;;;;;11.70;9.83;;;;;;;3.83;79.15;95550.31;5070829;28;20547;-55
2023/03/07 03:11:24;;;;;;;11.10;9.33;;;;;;;3.89;78.28;95547.19;5071150;28;20304;-55
2023/03/07 03:13:51;;;;;;;11.30;10.10;;;;;;;3.87;76.49;95549.94;5070195;28;20623;-55
2023/03/07 03:16:17;;;;;;;11.63;9.73;;;;;;;3.88;76.85;95543.75;5070031;28;20222;-56
2023/03/07 03:18:45;;;;;;;11.50;9.57;;;;;;;3.93;76.51;95546.78;5070558;28;20210;-55
2023/03/07 03:21:13;;;;;;;11.43;9.60;;;;;;;3.95;75.68;95538.81;5070944;28;20206;-56
2023/03/07 03:23:39;;;;;;;12.67;9.40;;;;;;;4.05;73.75;95538.88;5070893;28;20217;-54
2023/03/07 03:26:10;;;;;;;12.63;9.40;;;;;;;4.00;73.72;95537.47;5070788;28;20198;-54
2023/03/07 03:28:37;;;;;;;10.37;9.07;;;;;;;4.04;73.25;95526.75;5070264;28;20199;-55
2023/03/07 03:31:05;;;;;;;11.47;9.73;;;;;;;4.04;73.47;95521.53;5070304;28;20206;-55
2023/03/07 03:33:32;;;;;;;11.17;9.40;;;;;;;3.97;74.10;95515.97;5070581;28;20217;-55
2023/03/07 03:36:05;;;;;;;11.60;9.07;;;;;;;3.96;73.97;95524.78;5070217;28;20241;-54
2023/03/07 03:38:32;;;;;;;10.17;8.70;;;;;;;3.97;74.78;95529.03;5070133;28;20291;-55
2023/03/07 03:40:58;;;;;;;11.50;8.87;;;;;;;3.96;74.18;95517.78;5070727;28;20241;-55
2023/03/07 03:43:25;;;;;;;11.03;9.60;;;;;;;3.92;73.80;95523.41;5069921;28;20214;-55
2023/03/07 03:45:55;;;;;;;10.10;9.00;;;;;;;3.97;72.80;95515.97;5069762;28;20328;-56
2023/03/07 03:48:24;;;;;;;10.20;8.60;;;;;;;3.95;72.71;95510.88;5070009;28;20324;-55
2023/03/07 03:50:50;;;;;;;10.07;8.63;;;;;;;4.08;71.62;95512.44;5070594;28;20210;-56
2023/03/07 03:53:18;;;;;;;10.30;8.93;;;;;;;4.03;71.71;95517.25;5072075;28;20202;-55
2023/03/07 03:55:44;;;;;;;11.13;8.97;;;;;;;4.00;71.59;95521.78;5074534;28;20218;-54
2023/03/07 03:58:11;;;;;;;10.53;8.50;;;;;;;3.94;72.71;95522.28;5074390;28;20214;-55
2023/03/07 04:00:37;;;;;;;11.73;9.27;;;;;;;3.96;72.56;95512.56;5074419;28;20213;-55
2023/03/07 04:03:04;;;;;;;8.80;7.90;;;;;;;4.00;71.82;95505.28;5074329;28;20206;-55
2023/03/07 04:05:33;;;;;;;10.53;8.73;;;;;;;3.98;71.75;95501.94;5074020;28;20279;-55
2023/03/07 04:07:59;;;;;;;10.17;8.67;;;;;;;4.00;70.90;95506.06;5073312;28;20195;-55
2023/03/07 04:10:27;;;;;;;11.03;8.67;;;;;;;3.95;72.89;95502.22;5073979;28;20209;-56
2023/03/07 04:12:53;;;;;;;9.17;7.80;;;;;;;3.89;72.16;95497.50;5073627;28;20210;-55
2023/03/07 04:15:20;;;;;;;10.83;8.47;;;;;;;3.90;73.81;95492.13;5074252;28;20264;-55
2023/03/07 04:17:46;;;;;;;14.63;9.00;;;;;;;3.91;72.98;95501.63;5073293;28;20662;-55
2023/03/07 04:20:16;;;;;;;10.03;8.50;;;;;;;3.94;71.88;95496.16;5074045;28;20217;-55
2023/03/07 04:22:42;;;;;;;14.37;9.50;;;;;;;3.93;72.53;95491.88;5073356;28;20681;-55
2023/03/07 04:25:09;;;;;;;8.43;7.60;;;;;;;3.95;70.47;95483.91;5073292;28;20202;-55
2023/03/07 04:27:37;;;;;;;11.40;8.53;;;;;;;3.93;71.11;95478.78;5073746;28;20654;-55
2023/03/07 04:30:05;;;;;;;10.60;8.27;;;;;;;3.93;71.84;95481.41;5074006;28;20203;-55
2023/03/07 04:32:31;;;;;;;11.67;8.57;;;;;;;3.92;70.41;95477.16;5073835;28;20194;-56
2023/03/07 04:34:58;;;;;;;10.30;8.00;;;;;;;3.95;71.38;95476.88;5073147;28;20603;-55
2023/03/07 04:37:24;;;;;;;10.20;8.30;;;;;;;3.90;71.34;95479.06;5073432;28;20217;-55
2023/03/07 04:39:50;;;;;;;10.00;8.27;;;;;;;3.85;72.51;95480.41;5072980;28;20202;-55
2023/03/07 04:42:17;;;;;;;12.37;8.63;;;;;;;3.83;73.90;95467.47;5073701;28;20203;-56
2023/03/07 04:44:45;;;;;;;10.37;8.40;;;;;;;3.81;73.63;95469.41;5072949;28;20538;-55
2023/03/07 04:47:11;;;;;;;10.17;8.57;;;;;;;3.75;74.96;95462.06;5073282;28;20320;-55
2023/03/07 04:49:37;;;;;;;8.90;7.43;;;;;;;3.83;73.68;95457.00;5071978;28;20704;-56
2023/03/07 04:52:05;;;;;;;10.93;8.00;;;;;;;3.90;72.33;95458.13;5072252;28;20207;-56
2023/03/07 04:54:31;;;;;;;9.17;8.27;;;;;;;3.89;71.04;95459.13;5071892;28;20298;-56
2023/03/07 04:56:58;;;;;;;10.17;8.87;;;;;;;3.88;72.07;95443.53;5072778;28;20284;-55
2023/03/07 04:59:24;;;;;;;10.10;8.03;;;;;;;3.93;70.93;95444.00;5072524;28;20226;-55
2023/03/07 05:01:52;;;;;;;11.10;8.17;;;;;;;3.90;70.24;95447.69;5073375;28;20214;-56
2023/03/07 05:04:18;;;;;;;9.77;8.50;;;;;;;3.87;71.21;95447.09;5072779;28;20202;-56
2023/03/07 05:06:45;;;;;;;9.00;8.10;;;;;;;3.86;71.49;95446.28;5072263;28;20195;-58
2023/03/07 05:09:11;;;;;;;8.87;7.83;;;;;;;3.85;72.84;95455.09;5073246;28;20305;-57
2023/03/07 05:11:38;;;;;;;8.60;7.77;;;;;;;3.77;73.89;95444.47;5073236;28;20785;-55
2023/03/07 05:14:04;;;;;;;9.13;8.17;;;;;;;3.72;74.92;95438.78;5071777;28;20221;-55
2023/03/07 05:16:30;;;;;;;11.77;8.50;;;;;;;3.71;75.26;95438.94;5071502;28;20237;-55
2023/03/07 05:18:59;;;;;;;11.93;8.93;;;;;;;3.66;74.09;95439.31;5071560;28;20199;-55
2023/03/07 05:21:26;;;;;;;10.30;8.70;;;;;;;3.68;75.44;95447.88;5071718;28;20199;-56
2023/03/07 05:23:52;;;;;;;9.80;8.73;;;;;;;3.62;76.59;95440.53;5071165;28;20199;-54
2023/03/07 05:26:19;;;;;;;10.37;8.23;;;;;;;3.53;76.93;95441.31;5071835;28;20217;-55
2023/03/07 05:28:46;;;;;;;10.73;8.60;;;;;;;3.54;77.38;95440.38;5071319;28;20207;-56
2023/03/07 05:31:12;;;;;;;9.33;8.13;;;;;;;3.48;78.10;95443.47;5071730;28;20294;-55
2023/03/07 05:33:41;;;;;;;11.93;8.27;;;;;;;3.40;79.89;95438.09;5071015;28;20574;-55
2023/03/07 05:36:09;;;;;;;10.30;8.27;;;;;;;3.41;78.21;95427.50;5071642;28;20230;-54
2023/03/07 05:38:36;;;;;;;10.27;7.50;;;;;;;3.42;78.04;95425.72;5071700;28;20202;-54
2023/03/07 05:41:02;;;;;;;10.37;8.23;;;;;;;3.40;79.26;95425.03;5071565;28;20221;-56
2023/03/07 05:43:29;;;;;;;10.73;9.00;;;;;;;3.31;79.05;95428.41;5071273;28;20218;-55
2023/03/07 05:45:55;;;;;;;10.33;7.50;;;;;;;3.30;77.89;95424.97;5070385;28;20210;-56
2023/03/07 05:48:22;;;;;;;10.13;7.90;;;;;;;3.31;79.16;95424.00;5033122;28;1094848;-54
2023/03/07 05:50:48;;;;;;;8.77;7.87;;;;;;;3.27;79.43;95421.78;5071749;28;20260;-56
2023/03/07 05:53:16;;;;;;;9.30;8.27;;;;;;;3.26;80.50;95420.94;5073463;28;20213;-56
2023/03/07 05:55:42;;;;;;;11.33;8.37;;;;;;;3.25;79.41;95419.31;5074742;28;20222;-56
2023/03/07 05:58:09;;;;;;;9.50;7.70;;;;;;;3.32;79.56;95417.00;5075081;28;20221;-55
2023/03/07 06:00:35;;;;;;;12.20;7.97;;;;;;;3.32;77.55;95420.44;5072978;28;20206;-55
2023/03/07 06:03:02;;;;;;;10.43;7.73;;;;;;;3.37;76.64;95422.66;5071780;28;20226;-56
2023/03/07 06:05:29;;;;;;;8.77;7.43;;;;;;;3.39;76.81;95431.22;5072136;28;20218;-55
2023/03/07 06:07:55;;;;;;;9.80;7.33;;;;;;;3.42;76.08;95420.50;5072346;28;20554;-56
2023/03/07 06:10:23;;;;;;;9.57;7.57;;;;;;;3.47;76.50;95421.75;5072478;28;20215;-55
2023/03/07 06:12:50;;;;;;;10.63;7.60;;;;;;;3.57;75.72;95419.19;5071858;28;20631;-55
2023/03/07 06:15:17;;;;;;;8.23;7.43;;;;;;;3.56;75.36;95412.31;5069541;28;20206;-53
2023/03/07 06:17:43;;;;;;;10.20;8.40;;;;;;;3.61;75.03;95415.38;5071096;28;20295;-59
2023/03/07 06:20:11;;;;;;;9.83;8.20;;;;;;;3.66;74.64;95412.34;5071347;28;20206;-53
2023/03/07 06:22:38;;;;;;;8.57;7.43;;;;;;;3.68;74.86;95416.50;5070642;28;20202;-54
2023/03/07 06:25:06;;;;;;;9.67;8.20;;;;;;;3.70;74.94;95406.72;5070466;28;20213;-53
2023/03/07 06:27:33;;;;;;;11.43;8.20;;;;;;;3.72;74.48;95404.78;5070867;28;20198;-55
2023/03/07 06:30:00;;;;;;;8.83;7.83;;;;;;;3.75;71.61;95396.72;5071584;28;20210;-55
2023/03/07 06:32:26;;;;;;;9.30;7.60;;;;;;;3.82;72.01;95395.22;5071453;28;20202;-55
2023/03/07 06:34:53;;;;;;;7.73;6.93;;;;;;;3.91;67.25;95388.38;5070702;28;20207;-54
2023/03/07 06:37:19;;;;;;;9.20;6.93;;;;;;;3.98;67.88;95402.56;5071312;28;20219;-55
2023/03/07 06:39:46;;;;;;;9.17;6.83;;;;;;;4.03;68.14;95399.56;5071439;28;20209;-54
2023/03/07 06:42:12;;;;;;;7.03;6.33;;;;;;;4.11;67.08;95408.38;5071559;28;20199;-53
2023/03/07 06:44:40;;;;;;;7.33;6.40;;;;;;;4.12;68.78;95403.97;5072186;28;20198;-54
2023/03/07 06:47:08;;;;;;;7.17;6.23;;;;;;;4.11;67.73;95413.59;5071712;28;20280;-54
2023/03/07 06:49:34;;;;;;;12.20;9.60;;;;;;;4.16;68.60;95407.97;5070449;28;20490;-56
2023/03/07 06:52:01;;;;;;;11.10;9.00;;;;;;;4.22;67.57;95417.91;5071038;28;20221;-55
2023/03/07 06:54:27;;;;;;;9.37;7.33;;;;;;;4.27;67.18;95410.47;5080383;28;20202;-55
2023/03/07 06:56:54;;;;;;;9.63;7.10;;;;;;;4.29;69.23;95412.00;5079096;28;20214;-55
2023/03/07 06:59:21;;;;;;;7.57;6.57;;;;;;;4.39;65.16;95422.50;5080404;28;20316;-56
2023/03/07 07:01:48;;;;;;;9.87;8.07;;;;;;;4.44;64.85;95413.25;5080559;28;20213;-55
2023/03/07 07:04:15;;;;;;;7.93;6.90;;;;;;;4.43;64.60;95413.38;5073478;28;20206;-55
2023/03/07 07:06:42;;;;;;;9.30;7.10;;;;;;;4.46;62.46;95421.00;5071581;28;20217;-53
2023/03/07 07:09:11;;;;;;;7.60;5.80;;;;;;;4.56;63.11;95408.75;5070974;28;20199;-55
2023/03/07 07:11:37;;;;;;;6.13;5.53;;;;;;;4.62;62.43;95413.41;5071107;28;20224;-55
2023/03/07 07:14:04;;;;;;;6.47;5.87;;;;;;;4.69;62.50;95417.16;5070835;28;20194;-53
2023/03/07 07:16:32;;;;;;;8.83;6.60;;;;;;;4.72;62.75;95418.66;5070091;28;20230;-54
2023/03/07 07:19:00;;;;;;;8.20;7.27;;;;;;;4.76;63.15;95407.78;5070583;28;20198;-55
2023/03/07 07:21:27;;;;;;;7.67;6.37;;;;;;;4.83;62.84;95402.81;5070837;28;20209;-54
2023/03/07 07:23:55;;;;;;;7.10;6.33;;;;;;;4.90;60.87;95407.34;5070549;28;20217;-55
2023/03/07 07:26:23;;;;;;;7.33;6.63;;;;;;;4.88;60.85;95409.31;5070656;28;20202;-54
2023/03/07 07:28:49;;;;;;;8.80;6.57;;;;;;;4.90;61.46;95401.28;5070762;28;20214;-55
2023/03/07 07:31:16;;;;;;;9.17;7.50;;;;;;;4.89;61.41;95404.88;5071647;28;20218;-55
2023/03/07 07:33:45;;;;;;;7.90;6.70;;;;;;;4.99;62.58;95395.22;5075031;28;20205;-56
2023/03/07 07:36:13;;;;;;;7.30;6.53;;;;;;;5.11;61.19;95403.75;5072851;28;20226;-54
2023/03/07 07:38:39;;;;;;;8.00;6.40;;;;;;;5.14;61.51;95399.06;5072449;28;20202;-55
2023/03/07 07:41:06;;;;;;;7.80;6.60;;;;;;;5.21;61.59;95407.22;5071169;28;20206;-55
2023/03/07 07:43:32;;;;;;;7.83;6.67;;;;;;;5.25;61.44;95400.69;5070124;28;20270;-54
2023/03/07 07:45:58;;;;;;;8.90;6.77;;;;;;;5.36;60.63;95397.91;5070278;28;20194;-55
2023/03/07 07:48:25;;;;;;;7.33;6.33;;;;;;;5.42;62.14;95398.16;5070533;28;20237;-54
2023/03/07 07:50:51;;;;;;;9.33;7.07;;;;;;;5.47;61.66;95397.75;5070487;28;20203;-56
2023/03/07 07:53:19;;;;;;;7.17;6.30;;;;;;;5.36;60.22;95397.91;5070476;28;20225;-57
2023/03/07 07:55:47;;;;;;;8.63;7.13;;;;;;;5.46;61.34;95382.97;5070608;28;20213;-57
2023/03/07 07:58:14;;;;;;;9.13;7.13;;;;;;;5.58;60.82;95384.47;5070350;28;20674;-56
2023/03/07 08:00:40;;;;;;;8.17;7.00;;;;;;;5.63;59.57;95392.75;5069861;28;20312;-55
2023/03/07 08:03:07;;;;;;;7.10;6.40;;;;;;;5.69;59.53;95391.31;5070115;28;20198;-57
2023/03/07 08:05:33;;;;;;;7.80;7.00;;;;;;;5.60;61.07;95379.88;5069823;28;20206;-58
2023/03/07 08:07:59;;;;;;;7.50;6.70;;;;;;;5.62;59.78;95375.34;5070474;28;20202;-56
2023/03/07 08:10:27;;;;;;;8.40;6.70;;;;;;;5.67;60.98;95380.97;5070031;28;20202;-56
2023/03/07 08:12:54;;;;;;;9.83;7.37;;;;;;;5.73;59.32;95390.06;5070385;28;20210;-56
2023/03/07 08:15:21;;;;;;;7.63;6.53;;;;;;;5.84;59.46;95385.47;5069471;28;20206;-56
2023/03/07 08:17:48;;;;;;;8.07;6.70;;;;;;;5.93;58.52;95375.94;5069611;28;20283;-56
2023/03/07 08:20:15;;;;;;;7.40;6.63;;;;;;;5.81;57.10;95382.31;5070991;28;20209;-56
2023/03/07 08:22:42;;;;;;;9.70;6.77;;;;;;;5.63;57.41;95378.81;5070415;28;20214;-56
2023/03/07 08:25:17;;;;;;;9.60;6.30;;;;;;;5.80;57.87;95373.63;5069697;28;20663;-55
2023/03/07 08:27:45;;;;;;;7.50;6.43;;;;;;;5.98;56.41;95374.53;5070332;28;20243;-56
2023/03/07 08:30:12;;;;;;;6.20;5.60;;;;;;;6.06;56.07;95370.34;5070084;28;20215;-56
2023/03/07 08:32:38;;;;;;;7.27;6.47;;;;;;;6.15;56.94;95369.47;5070417;28;20760;-55
2023/03/07 08:35:06;;;;;;;8.17;7.03;;;;;;;6.07;56.00;95366.72;5070140;28;20222;-55
2023/03/07 08:37:34;;;;;;;6.83;6.13;;;;;;;6.10;56.98;95376.94;5070176;28;20246;-56
2023/03/07 08:40:00;;;;;;;8.17;6.33;;;;;;;6.38;55.40;95381.19;5073437;28;20206;-57
2023/03/07 08:42:27;;;;;;;10.00;6.40;;;;;;;6.46;56.40;95383.91;5074118;28;20199;-57
2023/03/07 08:44:54;;;;;;;6.93;6.23;;;;;;;6.54;55.79;95383.16;5073975;28;20206;-56
2023/03/07 08:47:21;;;;;;;8.50;6.57;;;;;;;6.49;55.54;95378.34;5074881;28;20194;-56
2023/03/07 08:49:47;;;;;;;7.40;6.70;;;;;;;6.57;56.20;95373.19;5073504;28;20246;-56
2023/03/07 08:52:14;;;;;;;7.80;6.13;;;;;;;6.56;55.82;95371.53;5073757;28;20206;-56
2023/03/07 08:54:40;;;;;;;7.63;6.63;;;;;;;6.51;56.78;95360.66;5073350;28;20202;-56
2023/03/07 08:57:07;;;;;;;7.40;6.00;;;;;;;6.69;56.17;95364.13;5073416;28;20234;-57
2023/03/07 08:59:33;;;;;;;7.30;6.33;;;;;;;6.80;55.51;95370.94;5073237;28;20202;-56
2023/03/07 09:02:02;;;;;;;8.13;6.73;;;;;;;6.85;53.60;95360.78;5073168;28;20198;-57
2023/03/07 09:04:29;;;;;;;7.23;6.53;;;;;;;6.94;55.09;95358.06;5073240;28;20198;-57
2023/03/07 09:06:57;;;;;;;7.40;6.33;;;;;;;7.07;54.94;95348.97;5073235;28;20217;-57
2023/03/07 09:09:23;;;;;;;7.60;6.30;;;;;;;7.19;54.59;95353.03;5073188;28;20202;-58
2023/03/07 09:11:50;;;;;;;9.37;6.83;;;;;;;7.30;53.13;95358.00;5073164;28;20538;-56
2023/03/07 09:14:16;;;;;;;8.77;6.97;;;;;;;7.31;52.90;95343.88;5074129;28;20210;-57
2023/03/07 09:16:43;;;;;;;7.67;6.50;;;;;;;7.21;51.98;95343.16;5073646;28;20218;-57
2023/03/07 09:19:11;;;;;;;6.77;5.97;;;;;;;7.33;52.21;95337.47;5072456;28;20217;-57
2023/03/07 09:21:37;;;;;;;10.07;6.70;;;;;;;7.26;51.96;95344.34;5072878;28;20206;-57
2023/03/07 09:24:04;;;;;;;6.93;6.23;;;;;;;7.37;52.60;95345.88;5072537;28;20207;-57
2023/03/07 09:26:30;;;;;;;6.90;6.20;;;;;;;7.18;52.15;95343.47;5072866;28;20294;-58
2023/03/07 09:28:57;;;;;;;8.63;6.73;;;;;;;7.15;52.50;95343.78;5073008;28;20214;-57
2023/03/07 09:31:24;;;;;;;7.40;6.63;;;;;;;7.26;51.93;95341.72;5071968;28;20662;-57
2023/03/07 09:33:50;;;;;;;7.57;6.80;;;;;;;7.34;53.24;95333.88;5072713;28;20309;-57
2023/03/07 09:36:19;;;;;;;8.93;7.23;;;;;;;7.52;52.97;95325.94;5072743;28;20276;-58
2023/03/07 09:38:46;;;;;;;9.73;6.90;;;;;;;7.80;51.23;95327.38;5072598;28;20472;-57
2023/03/07 09:41:26;;;;;;;8.77;7.73;;;;;;;7.92;51.33;95326.13;5072655;28;20213;-57
2023/03/07 09:44:00;;;;;;;7.27;6.43;;;;;;;8.40;51.63;95322.81;5072499;28;20595;-58
2023/03/07 09:46:31;;;;;;;8.43;7.20;;;;;;;8.52;49.96;95312.81;5071060;28;20639;-57
2023/03/07 09:49:06;;;;;;;8.67;7.20;;;;;;;8.81;49.42;95302.63;5072202;28;20238;-57
2023/03/07 09:51:37;;;;;;;8.73;7.40;;;;;;;9.03;48.75;95300.31;5071038;28;20275;-58
2023/03/07 09:54:06;;;;;;;7.90;7.07;;;;;;;9.39;47.42;95296.25;5072646;28;20203;-55
2023/03/07 09:56:37;;;;;;;8.23;6.83;;;;;;;10.02;47.77;95286.47;5071991;28;20812;-58
2023/03/07 09:59:10;;;;;;;8.30;7.10;;;;;;;10.53;44.46;95286.88;5072439;28;20191;-59
2023/03/07 10:01:37;;;;;;;7.80;7.00;;;;;;;11.08;45.38;95291.91;5074067;28;20217;-57
2023/03/07 10:04:06;;;;;;;9.03;7.83;;;;;;;10.70;43.89;95285.75;5076046;28;20565;-58
2023/03/07 10:06:37;;;;;;;8.50;7.60;;;;;;;11.03;45.04;95281.03;5079897;28;20206;-58
2023/03/07 10:09:05;;;;;;;10.53;8.00;;;;;;;11.44;42.99;95271.69;5076443;28;20228;-57
2023/03/07 10:11:48;;;;;;;8.10;7.30;;;;;;;11.08;42.89;95268.09;5072683;28;20277;-57
2023/03/07 10:14:30;;;;;;;9.37;8.17;;;;;;;11.45;41.42;95254.81;5072095;28;20328;-58
2023/03/07 10:17:02;;;;;;;7.83;7.03;;;;;;;11.80;44.15;95261.22;5071449;28;20202;-57
2023/03/07 10:19:33;;;;;;;8.37;7.47;;;;;;;11.83;41.61;95263.50;5071618;28;20217;-57
2023/03/07 10:22:05;;;;;;;9.23;7.77;;;;;;;12.20;43.32;95248.44;5072217;28;20557;-57
2023/03/07 10:24:46;;;;;;;9.00;8.10;;;;;;;12.28;41.95;95243.88;5071716;28;20198;-57
2023/03/07 10:27:13;;;;;;;9.57;8.03;;;;;;;12.46;42.21;95233.66;5070876;28;20615;-57
2023/03/07 10:29:45;;;;;;;9.23;8.07;;;;;;;12.89;42.71;95226.47;5072027;28;20199;-57
2023/03/07 10:32:27;;;;;;;8.70;7.80;;;;;;;12.69;39.98;95222.84;5071471;28;20607;-57
2023/03/07 10:34:58;;;;;;;9.23;7.90;;;;;;;13.05;41.05;95221.91;5071688;28;20201;-57
2023/03/07 10:37:37;;;;;;;8.90;8.00;;;;;;;13.05;40.38;95221.91;5071661;28;20241;-57
2023/03/07 10:40:04;;;;;;;9.10;8.03;;;;;;;12.68;40.22;95220.41;5072789;28;20194;-57
2023/03/07 10:42:35;;;;;;;9.13;8.20;;;;;;;12.94;39.55;95216.13;5071448;28;20204;-58
2023/03/07 10:45:02;;;;;;;9.10;8.20;;;;;;;12.85;40.30;95212.00;5071181;28;20255;-58
2023/03/07 10:47:28;;;;;;;10.73;8.20;;;;;;;12.81;40.34;95213.38;5071854;28;20190;-57
2023/03/07 10:50:02;;;;;;;8.80;7.90;;;;;;;12.77;39.70;95213.94;5070753;28;20230;-57
2023/03/07 10:52:32;;;;;;;8.73;7.83;;;;;;;12.96;41.87;95208.00;5071399;28;20195;-56
2023/03/07 10:55:36;;;;;;;8.90;7.80;;;;;;;13.24;38.98;95200.06;5071352;28;20524;-57
2023/03/07 10:58:18;;;;;;;9.37;8.40;;;;;;;13.39;39.31;95201.56;5071277;28;20234;-56
2023/03/07 11:00:58;;;;;;;11.03;8.77;;;;;;;13.70;39.04;95198.47;5071333;28;20210;-58
2023/03/07 11:03:27;;;;;;;11.53;9.00;;;;;;;13.46;38.42;95193.66;5071470;28;20198;-57
2023/03/07 11:05:54;;;;;;;9.63;8.23;;;;;;;14.35;37.44;95184.59;5071000;28;20206;-57
2023/03/07 11:08:30;;;;;;;9.10;8.17;;;;;;;14.94;36.56;95181.19;5070925;28;20202;-57
2023/03/07 11:10:57;;;;;;;9.32;8.40;;;;;;;15.38;35.18;95180.50;5071289;28;20603;-57
2023/03/07 11:13:24;;;;;;;11.60;9.13;;;;;;;15.74;35.89;95175.53;5071200;28;20566;-57
2023/03/07 11:15:51;;;;;;;10.07;8.50;;;;;;;16.28;33.61;95176.94;5070392;28;20226;-57
2023/03/07 11:18:30;;;;;;;11.13;8.80;;;;;;;16.58;33.86;95171.88;5071022;28;20234;-58
2023/03/07 11:20:58;;;;;;;10.20;8.82;;;;;;;17.24;31.91;95177.50;5071120;28;20255;-57
2023/03/07 11:23:26;;;;;;;9.18;8.23;;;;;;;16.97;32.28;95166.19;5070774;28;20297;-58
2023/03/07 11:25:54;;;;;;;10.80;8.57;;;;;;;16.57;33.90;95163.03;5070881;28;20217;-57
2023/03/07 11:28:30;;;;;;;10.20;8.95;;;;;;;17.57;32.19;95174.53;5072714;28;20229;-57
2023/03/07 11:31:06;;;;;;;9.75;8.82;;;;;;;17.10;31.92;95171.44;5070815;28;20205;-57
2023/03/07 11:33:42;;;;;;;11.82;9.48;;;;;;;16.55;33.03;95169.56;5071721;28;20256;-57
2023/03/07 11:36:13;;;;;;;9.82;8.82;;;;;;;16.02;34.47;95166.38;5070839;28;20194;-57
2023/03/07 11:38:50;;;;;;;10.18;9.18;;;;;;;15.51;34.07;95161.88;5070839;28;20218;-57
2023/03/07 11:41:21;;;;;;;10.60;9.45;;;;;;;15.76;35.99;95160.16;5070910;28;20255;-57